Flight Track Log - Related Links

Times and Time Zones

All times are in EDT time to prevent confusion due to time zone crossing. See the SWA2278 flight status page for this flight to view local times or setup timezone preferences in your user account.

Time Position Orientation Groundspeed Altitude Reporting Facility
EDT Latitude Longitude Course Direction KTS MPH feet Rate Location/Type
Sat 11:51:12 AM 39.1833 -76.7667 218° Southwest 200 230 2,800  Level Potomac TRACON
Sat 11:52:12 AM 39.2000 -76.8333 288° West 215 247 5,600 3,316 Climbing Potomac TRACON
Sat 11:53:06 AM 39.2000 -76.9000 270° West 214 246 9,100 2,625 Climbing Potomac TRACON
Sat 11:55:40 AM 39.2033 -77.1558 271° West 340 391 14,700 2,383 Climbing Washington Center
Sat 11:56:00 AM 39.0031 -77.3136 218° Southwest  Level FlightAware Approximate
Sat 11:56:40 AM 39.1378 -77.2347 223° Southwest 306 352 17,600  Level Washington Center
Sat 11:57:40 AM 39.1050 -77.3464 249° West 323 372 19,900 2,300 Climbing Washington Center
Sat 11:58:40 AM 39.0719 -77.4606 250° West 336 387 22,200 2,100 Climbing Washington Center
Sat 11:59:40 AM 39.0386 -77.5800 250° West 354 407 24,100 2,100 Climbing Washington Center
Sat 12:00:40 PM 38.9989 -77.7125 249° West 365 420 26,400 1,450 Climbing Washington Center
Sat 12:01:40 PM 38.9678 -77.8208 250° West 363 418 27,000 300 Climbing Washington Center
Sat 12:02:40 PM 38.9319 -77.9453 250° West 368 423 27,000 1,210 Level Washington Center
Sat 12:03:39 PM 38.8942 -78.0747 249° West 368 423 29,400 2,150 Climbing Washington Center
Sat 12:04:40 PM 38.8603 -78.1908 249° West 363 418 31,300 1,587 Climbing Washington Center
Sat 12:05:40 PM 38.8533 -78.3158 266° West 358 412 32,600 1,350 Climbing Washington Center
Sat 12:06:40 PM 38.8525 -78.4467 270° West 364 419 34,000 1,200 Climbing Washington Center
Sat 12:07:40 PM 38.8514 -78.5772 269° West 364 419 35,000 500 Climbing Washington Center
Sat 12:08:40 PM 38.8503 -78.7050 269° West 364 419 35,000  Level Washington Center
Sat 12:09:40 PM 38.8467 -78.8356 268° West 364 419 35,000  Level Washington Center
Sat 12:10:40 PM 38.8453 -78.9661 269° West 364 419 35,000  Level Washington Center
Sat 12:11:40 PM 38.8436 -79.0967 269° West 364 419 35,000 300 Level Washington Center
Sat 12:12:40 PM 38.8417 -79.2297 269° West 369 425 35,600 500 Climbing Washington Center
Sat 12:13:40 PM 38.8375 -79.3628 268° West 374 430 36,000 200 Climbing Washington Center
Sat 12:14:40 PM 38.8375 -79.4933 270° West 374 430 36,000  Level Washington Center
Sat 12:15:40 PM 38.8336 -79.6186 268° West 379 436 36,000  Level Washington Center
Sat 12:16:40 PM 38.8311 -79.7517 269° West 379 436 36,000  Level Washington Center
Sat 12:19:02 PM 38.8206 -80.0675 268° West 374 430 36,000  Level Indianapolis Center
Sat 12:20:04 PM 38.8175 -80.1992 268° West 371 427 36,000  Level Indianapolis Center
Sat 12:21:05 PM 38.8147 -80.3325 269° West 373 429 36,000  Level Indianapolis Center
Sat 12:22:06 PM 38.8103 -80.4633 268° West 368 423 36,000  Level Indianapolis Center
Sat 12:23:08 PM 38.8064 -80.5961 268° West 371 427 36,000  Level Indianapolis Center
Sat 12:24:09 PM 38.8017 -80.7281 267° West 371 427 36,000  Level Indianapolis Center
Sat 12:25:10 PM 38.7989 -80.8608 269° West 371 427 36,000  Level Indianapolis Center
Sat 12:26:12 PM 38.7936 -80.9931 267° West 373 429 36,000  Level Indianapolis Center
Sat 12:27:13 PM 38.7878 -81.1519 267° West 374 430 36,000 344 Level Indianapolis Center
Sat 12:28:14 PM 38.7839 -81.2853 268° West 376 433 36,700 780 Climbing Indianapolis Center
Sat 12:29:16 PM 38.7792 -81.4194 267° West 377 434 37,600 634 Climbing Indianapolis Center
Sat 12:30:17 PM 38.7736 -81.5583 267° West 388 447 38,000 197 Climbing Indianapolis Center
Sat 12:31:18 PM 38.7686 -81.6872 267° West 388 447 38,000  Level Indianapolis Center
Sat 12:32:20 PM 38.7636 -81.8233 267° West 386 444 38,000  Level Indianapolis Center
Sat 12:33:21 PM 38.7561 -81.9894 267° West 388 447 38,000  Level Indianapolis Center
Sat 12:34:22 PM 38.7508 -82.1278 267° West 389 448 38,000  Level Indianapolis Center
Sat 12:35:23 PM 38.7456 -82.2644 267° West 386 444 38,000  Level Indianapolis Center
Sat 12:36:25 PM 38.7406 -82.4003 267° West 383 441 38,000  Level Indianapolis Center
Sat 12:37:26 PM 38.7450 -82.5369 272° West 390 449 38,000  Level Indianapolis Center
Sat 12:38:27 PM 38.7558 -82.6739 276° West 387 445 38,000  Level Indianapolis Center
Sat 12:39:29 PM 38.7661 -82.8108 276° West 385 443 38,000  Level Indianapolis Center
Sat 12:40:30 PM 38.7764 -82.9483 276° West 387 445 38,000  Level Indianapolis Center
Sat 12:41:31 PM 38.7858 -83.0839 275° West 384 442 38,000  Level Indianapolis Center
Sat 12:42:33 PM 38.7972 -83.2369 276° West 381 438 38,000  Level Indianapolis Center
Sat 12:43:34 PM 38.8081 -83.3756 276° West 384 442 38,000  Level Indianapolis Center
Sat 12:44:35 PM 38.8169 -83.5106 275° West 378 435 38,000  Level Indianapolis Center
Sat 12:45:36 PM 38.8256 -83.6481 275° West 381 438 38,000  Level Indianapolis Center
Sat 12:46:38 PM 38.8361 -83.7850 276° West 381 438 38,000  Level Indianapolis Center
Sat 12:47:39 PM 38.8458 -83.9244 275° West 386 444 38,000  Level Indianapolis Center
Sat 12:48:40 PM 38.8544 -84.0617 275° West 384 442 38,000  Level Indianapolis Center
Sat 12:49:42 PM 38.8631 -84.1981 275° West 381 438 38,000  Level Indianapolis Center
Sat 12:50:43 PM 38.8714 -84.3344 275° West 380 437 38,000  Level Indianapolis Center
Sat 12:51:44 PM 38.8794 -84.4717 274° West 380 437 38,000  Level Indianapolis Center
Sat 12:52:46 PM 38.8881 -84.6267 274° West 384 442 38,000  Level Indianapolis Center
Sat 12:53:47 PM 38.8961 -84.7631 274° West 385 443 38,000  Level Indianapolis Center
Sat 12:54:48 PM 38.9144 -84.8825 281° West 388 447 38,000  Level Indianapolis Center
Sat 12:55:50 PM 38.9461 -85.0161 287° West 391 450 38,000  Level Indianapolis Center
Sat 12:56:51 PM 38.9817 -85.1797 286° West 395 455 38,000  Level Indianapolis Center
Sat 12:57:53 PM 39.0122 -85.3156 286° West 395 455 38,000  Level Indianapolis Center
Sat 12:58:54 PM 39.0306 -85.4553 280° West 397 457 38,000  Level Indianapolis Center
Sat 12:59:55 PM 39.0378 -85.5967 274° West 397 457 38,000  Level Indianapolis Center
Sat 01:00:57 PM 39.0425 -85.7389 272° West 398 458 38,000  Level Indianapolis Center
Sat 01:01:58 PM 39.0492 -85.8831 273° West 401 461 38,000  Level Indianapolis Center
Sat 01:03:00 PM 39.0558 -86.0269 273° West 401 461 38,000  Level Indianapolis Center
Sat 01:04:01 PM 39.0608 -86.1703 273° West 402 463 38,000  Level Indianapolis Center
Sat 01:05:02 PM 39.0667 -86.3153 273° West 404 465 38,000  Level Indianapolis Center
Sat 01:06:04 PM 39.0725 -86.4594 273° West 404 465 38,000  Level Indianapolis Center
Sat 01:07:05 PM 39.0778 -86.6044 273° West 405 466 38,000  Level Indianapolis Center
Sat 01:08:07 PM 39.0842 -86.7756 273° West 401 461 38,000  Level Indianapolis Center
Sat 01:09:08 PM 39.0894 -86.9175 273° West 398 458 38,000  Level Indianapolis Center
Sat 01:10:10 PM 39.0939 -87.0594 272° West 397 457 38,000  Level Indianapolis Center
Sat 01:11:11 PM 39.0983 -87.1994 272° West 394 453 38,000  Level Indianapolis Center
Sat 01:12:13 PM 39.1025 -87.3394 272° West 393 452 38,000  Level Indianapolis Center
Sat 01:14:02 PM 39.1083 -87.5953 272° West 393 452 38,000  Level Kansas City Center
Sat 01:15:05 PM 39.1125 -87.7358 272° West 393 452 38,000  Level Kansas City Center
Sat 01:16:05 PM 39.1161 -87.8789 272° West 396 456 38,000  Level Kansas City Center
Sat 01:17:10 PM 39.1206 -88.0508 272° West 399 459 38,000  Level Kansas City Center
Sat 01:18:11 PM 39.1233 -88.1947 271° West 400 460 38,000  Level Kansas City Center
Sat 01:19:12 PM 39.1264 -88.3389 272° West 401 461 38,000  Level Kansas City Center
Sat 01:20:15 PM 39.1306 -88.4817 272° West 401 461 38,000  Level Kansas City Center
Sat 01:21:17 PM 39.1333 -88.6247 271° West 400 460 38,000  Level Kansas City Center
Sat 01:22:18 PM 39.1350 -88.7711 271° West 403 464 38,000  Level Kansas City Center
Sat 01:23:22 PM 39.1394 -88.9147 272° West 403 464 38,000  Level Kansas City Center
Sat 01:24:22 PM 39.1408 -89.0786 271° West 399 459 38,000  Level Kansas City Center
Sat 01:25:25 PM 39.1428 -89.2303 271° West 395 455 38,000  Level Kansas City Center
Sat 01:26:27 PM 39.1442 -89.3708 271° West 395 455 38,000  Level Kansas City Center
Sat 01:27:30 PM 39.1467 -89.5231 271° West 396 456 38,000  Level Kansas City Center
Sat 01:28:31 PM 39.1475 -89.6636 270° West 395 455 38,000  Level Kansas City Center
Sat 01:29:34 PM 39.1497 -89.8183 271° West 402 463 38,000  Level Kansas City Center
Sat 01:30:35 PM 39.1506 -89.9606 270° West 400 460 38,000  Level Kansas City Center
Sat 01:31:36 PM 39.1525 -90.1039 271° West 401 461 38,000  Level Kansas City Center
Sat 01:32:39 PM 39.1525 -90.2469 270° West 403 464 38,000  Level Kansas City Center
Sat 01:33:40 PM 39.1533 -90.3886 270° West 401 461 38,000  Level Kansas City Center
Sat 01:34:44 PM 39.1539 -90.5303 270° West 400 460 38,000  Level Kansas City Center
Sat 01:35:44 PM 39.1544 -90.6967 270° West 394 453 38,000  Level Kansas City Center
Sat 01:36:47 PM 39.1547 -90.8369 270° West 394 453 38,000  Level Kansas City Center
Sat 01:37:50 PM 39.1556 -90.9811 270° West 401 461 38,000  Level Kansas City Center
Sat 01:38:50 PM 39.1550 -91.1231 270° West 401 461 38,000  Level Kansas City Center
Sat 01:39:54 PM 39.1536 -91.2669 269° West 402 463 38,000  Level Kansas City Center
Sat 01:40:54 PM 39.1539 -91.4389 270° West 402 463 38,000  Level Kansas City Center
Sat 01:41:56 PM 39.1525 -91.5828 269° West 404 465 38,000  Level Kansas City Center
Sat 01:42:59 PM 39.1519 -91.7214 270° West 406 467 38,000  Level Kansas City Center
Sat 01:44:00 PM 39.1494 -91.8656 269° West 405 466 38,000  Level Kansas City Center
Sat 01:45:02 PM 39.1486 -92.0414 270° West 408 470 38,000  Level Kansas City Center
Sat 01:46:05 PM 39.1464 -92.1850 269° West 403 464 38,000  Level Kansas City Center
Sat 01:47:05 PM 39.1444 -92.3292 269° West 403 464 38,000  Level Kansas City Center
Sat 01:48:07 PM 39.1417 -92.4731 269° West 403 464 38,000  Level Kansas City Center
Sat 01:49:11 PM 39.1406 -92.6164 269° West 402 463 38,000  Level Kansas City Center
Sat 01:50:13 PM 39.1378 -92.7731 269° West 402 463 38,000  Level Kansas City Center
Sat 01:51:13 PM 39.1347 -92.9172 268° West 403 464 38,000  Level Kansas City Center
Sat 01:52:14 PM 39.1325 -93.0631 269° West 408 470 38,000  Level Kansas City Center
Sat 01:53:17 PM 39.1294 -93.2072 268° West 406 467 38,000  Level Kansas City Center
Sat 01:54:19 PM 39.1256 -93.3497 268° West 402 463 38,000  Level Kansas City Center
Sat 01:55:22 PM 39.1244 -93.5039 270° West 404 465 38,000  Level Kansas City Center
Sat 01:56:23 PM 39.1203 -93.6628 268° West 399 459 38,000  Level Kansas City Center
Sat 01:57:24 PM 39.1167 -93.7986 268° West 397 457 38,000  Level Kansas City Center
Sat 01:58:25 PM 39.1131 -93.9569 268° West 397 457 38,000  Level Kansas City Center
Sat 01:59:29 PM 39.1083 -94.0928 267° West 394 453 38,000  Level Kansas City Center
Sat 02:00:30 PM 39.1033 -94.2508 268° West 393 452 38,000  Level Kansas City Center
Sat 02:01:31 PM 39.0994 -94.3850 268° West 392 451 38,000  Level Kansas City Center
Sat 02:02:35 PM 39.0953 -94.5422 268° West 393 452 38,000  Level Kansas City Center
Sat 02:03:35 PM 39.0908 -94.6767 268° West 392 451 38,000  Level Kansas City Center
Sat 02:04:38 PM 39.0861 -94.8128 267° West 396 456 38,000  Level Kansas City Center
Sat 02:05:38 PM 39.0808 -94.9731 268° West 400 460 38,000  Level Kansas City Center
Sat 02:06:42 PM 39.0753 -95.1292 267° West 403 464 38,000  Level Kansas City Center
Sat 02:07:42 PM 39.0694 -95.2736 267° West 404 465 38,000  Level Kansas City Center
Sat 02:08:46 PM 39.0633 -95.4181 267° West 405 466 38,000  Level Kansas City Center
Sat 02:09:47 PM 39.0583 -95.5550 267° West 402 463 38,000  Level Kansas City Center
Sat 02:10:47 PM 39.0517 -95.7153 267° West 400 460 38,000  Level Kansas City Center
Sat 02:11:49 PM 39.0453 -95.8519 267° West 402 463 38,000  Level Kansas City Center
Sat 02:12:53 PM 39.0386 -96.0114 267° West 400 460 38,000  Level Kansas City Center
Sat 02:13:54 PM 39.0322 -96.1467 267° West 397 457 38,000  Level Kansas City Center
Sat 02:14:54 PM 39.0261 -96.2822 267° West 397 457 38,000  Level Kansas City Center
Sat 02:15:58 PM 39.0189 -96.4417 267° West 400 460 38,000  Level Kansas City Center
Sat 02:17:01 PM 39.0086 -96.5758 264° West 395 455 38,000  Level Kansas City Center
Sat 02:18:01 PM 39.0017 -96.7367 267° West 401 461 38,000  Level Kansas City Center
Sat 02:19:03 PM 38.9947 -96.8744 266° West 403 464 38,000  Level Kansas City Center
Sat 02:20:04 PM 38.9867 -97.0344 266° West 403 464 38,000  Level Kansas City Center
Sat 02:21:05 PM 38.9819 -97.1722 268° West 403 464 38,000  Level Kansas City Center
Sat 02:22:08 PM 38.9731 -97.3172 266° West 406 467 38,000  Level Kansas City Center
Sat 02:23:09 PM 38.9653 -97.4592 266° West 403 464 38,000  Level Kansas City Center
Sat 02:24:11 PM 38.9569 -97.6075 266° West 404 465 38,000  Level Kansas City Center
Sat 02:25:12 PM 38.9483 -97.7672 266° West 402 463 38,000  Level Kansas City Center
Sat 02:26:16 PM 38.9381 -97.9158 265° West 404 465 38,000  Level Kansas City Center
Sat 02:27:16 PM 38.9294 -98.0564 266° West 398 458 38,000  Level Kansas City Center
Sat 02:28:17 PM 38.9211 -98.1975 266° West 397 457 38,000  Level Kansas City Center
Sat 02:29:20 PM 38.9117 -98.3386 265° West 398 458 38,000  Level Kansas City Center
Sat 02:30:22 PM 38.9025 -98.4794 265° West 398 458 38,000  Level Kansas City Center
Sat 02:31:23 PM 38.8939 -98.6219 266° West 402 463 38,000  Level Kansas City Center
Sat 02:32:25 PM 38.8828 -98.7914 265° West 400 460 38,000  Level Kansas City Center
Sat 02:33:27 PM 38.8717 -98.9333 264° West 401 461 38,000  Level Kansas City Center
Sat 02:34:28 PM 38.8622 -99.0744 265° West 400 460 38,000  Level Kansas City Center
Sat 02:35:31 PM 38.8519 -99.2150 265° West 397 457 38,000  Level Kansas City Center
Sat 02:36:33 PM 38.8464 -99.3583 267° West 401 461 38,000  Level Kansas City Center
Sat 02:37:25 PM 38.8506 -99.4633 273° West 398 458 38,000  Level Denver Center
Sat 02:38:27 PM 38.8519 -99.6439 271° West 400 460 38,000  Level Denver Center
Sat 02:39:28 PM 38.8531 -99.7792 271° West 397 457 38,000  Level Denver Center
Sat 02:40:30 PM 38.8528 -99.9369 270° West 398 458 38,000  Level Denver Center
Sat 02:41:32 PM 38.8533 -100.0742 270° West 400 460 38,000  Level Denver Center
Sat 02:42:33 PM 38.8544 -100.2331 271° West 401 461 38,000  Level Denver Center
Sat 02:43:35 PM 38.8547 -100.3692 270° West 401 461 38,000  Level Denver Center
Sat 02:44:36 PM 38.8556 -100.5294 270° West 402 463 38,000  Level Denver Center
Sat 02:45:38 PM 38.8547 -100.6667 270° West 404 465 38,000  Level Denver Center
Sat 02:46:39 PM 38.8553 -100.8072 270° West 407 468 38,000  Level Denver Center
Sat 02:47:41 PM 38.8550 -100.9681 270° West 407 468 38,000  Level Denver Center
Sat 02:48:43 PM 38.8542 -101.1058 270° West 405 466 38,000 -683 Level Denver Center
Sat 02:49:44 PM 38.8531 -101.2678 270° West 408 470 36,600 -1,171 Descending Denver Center
Sat 02:50:46 PM 38.8519 -101.4053 269° West 406 467 35,600 -1,122 Descending Denver Center
Sat 02:51:47 PM 38.8519 -101.5658 270° West 406 467 34,300 -780 Descending Denver Center
Sat 02:52:49 PM 38.8511 -101.7044 270° West 407 468 34,000 -145 Descending Denver Center
Sat 02:53:51 PM 38.8492 -101.8428 269° West 406 467 34,000  Level Denver Center
Sat 02:54:52 PM 38.8461 -101.9994 269° West 397 457 34,000  Level Denver Center
Sat 02:55:54 PM 38.8442 -102.1361 269° West 400 460 34,000  Level Denver Center
Sat 02:56:55 PM 38.8417 -102.2931 269° West 396 456 34,000  Level Denver Center
Sat 02:58:09 PM 38.8394 -102.4269 269° West 393 452 34,000  Level Denver Center
Sat 02:59:23 PM 38.8392 -102.6086 270° West 401 461 34,000  Level Denver Center
Sat 03:00:27 PM 38.9072 -102.7722 298° West 404 465 34,000 -88 Level Denver Center
Sat 03:01:40 PM 38.9611 -102.9019 298° West 406 467 33,800 -1,061 Descending Denver Center
Sat 03:02:54 PM 39.0253 -103.0481 300° West 399 459 31,400 -2,250 Descending Denver Center
Sat 03:03:56 PM 39.0931 -103.2106 298° West 384 442 28,700 -2,244 Descending Denver Center
Sat 03:04:57 PM 39.1431 -103.3286 299° West 373 429 26,800 -1,854 Descending Denver Center
Sat 03:05:59 PM 39.1908 -103.4422 299° West 361 415 24,900 -1,854 Descending Denver Center
Sat 03:07:00 PM 39.2378 -103.5544 298° West 356 410 23,000 -1,805 Descending Denver Center
Sat 03:08:02 PM 39.2828 -103.6628 298° West 342 394 21,200 -1,694 Descending Denver Center
Sat 03:09:04 PM 39.3261 -103.7683 298° West 333 383 19,500 -1,659 Descending Denver Center
Sat 03:10:05 PM 39.3689 -103.8706 298° West 325 374 17,800 -1,561 Descending Denver Center
Sat 03:11:07 PM 39.4006 -103.9847 290° West 324 373 16,300 -1,512 Descending Denver Center
Sat 03:12:08 PM 39.4011 -104.0989 270° West 315 362 14,700 -1,415 Descending Denver Center
Sat 03:13:10 PM 39.4053 -104.2158 273° West 305 351 13,400 -927 Descending Denver Center
Sat 03:14:11 PM 39.4250 -104.3125 285° West 281 323 12,800 -878 Descending Denver Center
Sat 03:15:13 PM 39.4433 -104.4153 283° West 293 337 11,600 -1,073 Descending Denver Center
Sat 03:16:14 PM 39.5014 -104.4967 313° West 293 337 10,600 -878 Descending Denver Center
Sat 03:17:16 PM 39.5594 -104.5667 317° Northwest 287 330 9,800 -683 Descending Denver Center
Sat 03:18:17 PM 39.6192 -104.6356 318° Northwest 289 333 9,200 -711 Descending Denver Center
Sat 03:19:31 PM 39.6881 -104.6628 343° North 253 291 8,200 -1,059 Descending Denver Center
Sat 03:20:33 PM 39.7606 -104.6619 North 214 246 6,800 -1,122 Descending Denver Center
Sat 03:21:34 PM 39.8053 -104.6617 360° North 165 190 5,900 -683 Descending Denver Center
Sat 03:22:36 PM 39.8489 -104.6622 359° North 149 171 5,400 -484 Descending Denver Center
Sat 03:24:00 PM 39.8500 -104.6667 North  Level FlightAware Approximate
Sat 03:31:00 PM 39.8617 -104.6732 North  Level Estimated
Sat 03:32:00 PM 39.8617 -104.6732 North  Level Estimated

Login

Don't have an account? Register now (free) for customized features, flight alerts, and more!